ダッカ の空港の天気 - METARとTAF

シャージャラル国際空港(ダッカ) ( VGHS / DAC ) - バングラデシュ ダッカ
飛行場実況気象(Metar)
観測時間04/26 17:00 BDT (04/26 11:00 UTC)
風向・風速北北東 5m/s
視程3500m
天気現象煙霧
全天の8割程度の雲 雲底高度 300m
少しの雲 雲底高度 760m
全天の8割程度の雲 雲底高度 3050m
気温29℃
湿度58%
気圧1006hPa
METARVGHS 261100Z 03010KT 3500 HZ BKN010 FEW025CB BKN100 29/20 Q1006 TEMPO TSRA
過去の天気等 Google飛行場航空写真 Wunderground天気予報

過去48時間のMETAR

飛行場予報(TAF)
発表時間: 4/26 11:00 BDT (4/26 05:00 UTC)
予報対象時間: 26日12時 BDT ~ 27日18時 BDT
風向・風速東南東 4m/s
視程4,000m
天気現象煙霧
全天の4割程度の雲 雲底高度 460m
全天の8割程度の雲 雲底高度 3,050m
26日12時 BDT ~ 26日18時 BDT に一時的に
風向・風速西北西 13m/s 瞬間風速 18m/s
視程2,000m
27日5時 BDT ~ 27日7時 BDT に徐々に
風向・風速東 3m/s
視程3,500m
天気現象煙霧
全天の4割程度の雲 雲底高度 370m
全天の8割程度の雲 雲底高度 3,050m
27日9時 BDT ~ 27日11時 BDT に徐々に
風向・風速東南東 4m/s
視程4,000m
天気現象煙霧
全天の4割程度の雲 雲底高度 460m
全天の8割程度の雲 雲底高度 3,050m
27日12時 BDT ~ 27日18時 BDT に一時的に
風向・風速西北西 13m/s 瞬間風速 18m/s
視程2,000m
TAF VGHS 260500Z 2606/2712 12008KT 4000 HZ SCT015 BKN100
TEMPO 2606/2612 30025G35KT 2000 RA/TSRA BKN008 FEW025CB OVC090
BECMG 2623/2701 10006KT 3500 HZ SCT012 BKN100
BECMG 2703/2705 12008KT 4000 HZ SCT015 BKN100
TEMPO 2706/2712 30025G35KT 2000 RA/TSRA BKN008 FEW025CB OVC090